sensor_id;sensor_type;location;lat;lon;timestamp;pressure;altitude;pressure_sealevel;temperature;humidity
61786;BME280;47692;53.714;11.372;2023-04-23T00:00:22;99978.00;;;13.09;69.51
61786;BME280;47692;53.714;11.372;2023-04-23T00:02:51;99969.13;;;13.13;70.04
61786;BME280;47692;53.714;11.372;2023-04-23T00:05:18;99970.66;;;13.17;70.19
61786;BME280;47692;53.714;11.372;2023-04-23T00:07:44;99978.31;;;13.22;70.91
61786;BME280;47692;53.714;11.372;2023-04-23T00:10:10;99981.16;;;13.17;70.79
61786;BME280;47692;53.714;11.372;2023-04-23T00:12:36;99979.31;;;13.19;70.60
61786;BME280;47692;53.714;11.372;2023-04-23T00:15:04;99990.56;;;13.21;70.77
61786;BME280;47692;53.714;11.372;2023-04-23T00:17:29;99982.69;;;13.21;70.77
61786;BME280;47692;53.714;11.372;2023-04-23T00:19:55;99981.03;;;13.20;70.60
61786;BME280;47692;53.714;11.372;2023-04-23T00:22:20;99971.31;;;13.22;70.35
61786;BME280;47692;53.714;11.372;2023-04-23T00:24:46;99970.25;;;13.27;70.54
61786;BME280;47692;53.714;11.372;2023-04-23T00:27:11;99968.56;;;13.25;70.91
61786;BME280;47692;53.714;11.372;2023-04-23T00:29:37;99970.25;;;13.27;71.51
61786;BME280;47692;53.714;11.372;2023-04-23T00:32:03;99972.88;;;13.27;71.58
61786;BME280;47692;53.714;11.372;2023-04-23T00:34:28;99968.28;;;13.32;71.57
61786;BME280;47692;53.714;11.372;2023-04-23T00:36:54;99963.03;;;13.32;72.02
61786;BME280;47692;53.714;11.372;2023-04-23T00:39:19;99975.28;;;13.31;71.57
61786;BME280;47692;53.714;11.372;2023-04-23T00:41:45;99976.91;;;13.34;70.58
61786;BME280;47692;53.714;11.372;2023-04-23T00:44:10;99969.81;;;13.36;70.48
61786;BME280;47692;53.714;11.372;2023-04-23T00:46:37;99970.19;;;13.47;69.84
61786;BME280;47692;53.714;11.372;2023-04-23T00:49:02;99972.81;;;13.47;69.70
61786;BME280;47692;53.714;11.372;2023-04-23T00:51:28;99977.94;;;13.50;69.33
61786;BME280;47692;53.714;11.372;2023-04-23T00:53:54;99970.00;;;13.52;69.26
61786;BME280;47692;53.714;11.372;2023-04-23T00:56:21;99964.66;;;13.53;68.71
61786;BME280;47692;53.714;11.372;2023-04-23T00:58:48;99971.69;;;13.53;68.55
61786;BME280;47692;53.714;11.372;2023-04-23T01:01:13;99960.69;;;13.64;68.59
61786;BME280;47692;53.714;11.372;2023-04-23T01:03:40;99964.66;;;13.53;68.86
61786;BME280;47692;53.714;11.372;2023-04-23T01:06:07;99957.09;;;13.47;69.43
61786;BME280;47692;53.714;11.372;2023-04-23T01:08:33;99971.28;;;13.43;69.91
61786;BME280;47692;53.714;11.372;2023-04-23T01:10:59;99963.31;;;13.45;69.96
61786;BME280;47692;53.714;11.372;2023-04-23T01:13:24;99963.63;;;13.38;70.12
61786;BME280;47692;53.714;11.372;2023-04-23T01:15:54;99964.88;;;13.49;70.15
61786;BME280;47692;53.714;11.372;2023-04-23T01:18:20;99967.44;;;13.50;70.58
61786;BME280;47692;53.714;11.372;2023-04-23T01:20:46;99958.50;;;13.54;70.71
61786;BME280;47692;53.714;11.372;2023-04-23T01:23:12;99962.34;;;13.47;70.96
61786;BME280;47692;53.714;11.372;2023-04-23T01:25:37;99950.13;;;13.46;71.11
61786;BME280;47692;53.714;11.372;2023-04-23T01:28:04;99953.84;;;13.42;71.39
61786;BME280;47692;53.714;11.372;2023-04-23T01:30:31;99950.56;;;13.37;71.92
61786;BME280;47692;53.714;11.372;2023-04-23T01:32:57;99948.94;;;13.34;71.90
61786;BME280;47692;53.714;11.372;2023-04-23T01:35:24;99948.84;;;13.36;71.81
61786;BME280;47692;53.714;11.372;2023-04-23T01:37:50;99951.66;;;13.31;71.91
61786;BME280;47692;53.714;11.372;2023-04-23T01:40:17;99950.97;;;13.28;72.35
61786;BME280;47692;53.714;11.372;2023-04-23T01:42:42;99937.94;;;13.26;73.09
61786;BME280;47692;53.714;11.372;2023-04-23T01:45:08;99939.38;;;13.14;73.97
61786;BME280;47692;53.714;11.372;2023-04-23T01:47:34;99940.38;;;13.12;74.64
61786;BME280;47692;53.714;11.372;2023-04-23T01:50:00;99938.38;;;13.17;76.14
61786;BME280;47692;53.714;11.372;2023-04-23T01:52:25;99944.72;;;13.11;76.93
61786;BME280;47692;53.714;11.372;2023-04-23T01:54:51;99946.44;;;13.12;76.71
61786;BME280;47692;53.714;11.372;2023-04-23T01:57:17;99941.31;;;13.09;76.80
61786;BME280;47692;53.714;11.372;2023-04-23T01:59:48;99947.34;;;13.11;77.55
61786;BME280;47692;53.714;11.372;2023-04-23T02:02:13;99946.56;;;13.09;77.88
61786;BME280;47692;53.714;11.372;2023-04-23T02:04:40;99951.59;;;13.14;77.84
61786;BME280;47692;53.714;11.372;2023-04-23T02:07:07;99952.78;;;13.06;77.34
61786;BME280;47692;53.714;11.372;2023-04-23T02:09:33;99948.44;;;13.07;77.39
61786;BME280;47692;53.714;11.372;2023-04-23T02:11:58;99947.00;;;13.00;77.68
61786;BME280;47692;53.714;11.372;2023-04-23T02:14:23;99956.50;;;13.02;77.01
61786;BME280;47692;53.714;11.372;2023-04-23T02:16:48;99952.50;;;12.93;76.93
61786;BME280;47692;53.714;11.372;2023-04-23T02:19:15;99953.31;;;12.96;77.04
61786;BME280;47692;53.714;11.372;2023-04-23T02:21:40;99954.22;;;12.95;77.42
61786;BME280;47692;53.714;11.372;2023-04-23T02:24:06;99952.44;;;12.95;77.42
61786;BME280;47692;53.714;11.372;2023-04-23T02:26:32;99959.19;;;13.01;77.36
61786;BME280;47692;53.714;11.372;2023-04-23T02:28:57;99957.59;;;12.97;77.51
61786;BME280;47692;53.714;11.372;2023-04-23T02:31:22;99955.91;;;12.96;77.91
61786;BME280;47692;53.714;11.372;2023-04-23T02:33:47;99962.72;;;13.00;77.82
61786;BME280;47692;53.714;11.372;2023-04-23T02:36:13;99963.56;;;13.00;78.44
61786;BME280;47692;53.714;11.372;2023-04-23T02:38:38;99956.50;;;13.02;78.43
61786;BME280;47692;53.714;11.372;2023-04-23T02:41:09;99962.28;;;13.09;78.68
61786;BME280;47692;53.714;11.372;2023-04-23T02:43:34;99965.84;;;13.08;79.22
61786;BME280;47692;53.714;11.372;2023-04-23T02:46:00;99964.00;;;13.10;79.16
61786;BME280;47692;53.714;11.372;2023-04-23T02:48:32;99960.19;;;13.17;80.03
61786;BME280;47692;53.714;11.372;2023-04-23T02:50:57;99956.78;;;13.15;81.69
61786;BME280;47692;53.714;11.372;2023-04-23T02:53:22;99961.88;;;13.18;83.01
61786;BME280;47692;53.714;11.372;2023-04-23T02:55:48;99966.34;;;13.16;84.22
61786;BME280;47692;53.714;11.372;2023-04-23T02:58:13;99966.56;;;13.12;85.28
61786;BME280;47692;53.714;11.372;2023-04-23T03:00:38;99960.97;;;13.19;87.23
61786;BME280;47692;53.714;11.372;2023-04-23T03:03:04;99962.28;;;13.09;88.77
61786;BME280;47692;53.714;11.372;2023-04-23T03:05:30;99958.00;;;13.08;89.38
61786;BME280;47692;53.714;11.372;2023-04-23T03:07:55;99953.50;;;13.10;90.00
61786;BME280;47692;53.714;11.372;2023-04-23T03:10:20;99958.03;;;13.06;91.07
61786;BME280;47692;53.714;11.372;2023-04-23T03:12:46;99949.81;;;12.95;93.04
61786;BME280;47692;53.714;11.372;2023-04-23T03:15:11;99954.50;;;12.88;94.32
61786;BME280;47692;53.714;11.372;2023-04-23T03:17:36;99956.91;;;12.93;94.88
61786;BME280;47692;53.714;11.372;2023-04-23T03:20:03;99951.66;;;12.93;96.25
61786;BME280;47692;53.714;11.372;2023-04-23T03:22:28;99954.50;;;12.88;98.38
61786;BME280;47692;53.714;11.372;2023-04-23T03:24:53;99950.69;;;12.96;100.00
61786;BME280;47692;53.714;11.372;2023-04-23T03:27:19;99945.72;;;12.89;100.00
61786;BME280;47692;53.714;11.372;2023-04-23T03:29:44;99948.34;;;12.89;100.00
61786;BME280;47692;53.714;11.372;2023-04-23T03:32:10;99950.81;;;12.92;100.00
61786;BME280;47692;53.714;11.372;2023-04-23T03:34:35;99948.34;;;12.89;100.00
61786;BME280;47692;53.714;11.372;2023-04-23T03:37:00;99949.25;;;12.88;100.00
61786;BME280;47692;53.714;11.372;2023-04-23T03:39:26;99950.50;;;12.80;100.00
61786;BME280;47692;53.714;11.372;2023-04-23T03:41:51;99947.38;;;12.71;100.00
61786;BME280;47692;53.714;11.372;2023-04-23T03:44:16;99951.63;;;12.74;100.00
61786;BME280;47692;53.714;11.372;2023-04-23T03:46:42;99944.81;;;12.70;100.00
61786;BME280;47692;53.714;11.372;2023-04-23T03:49:07;99949.41;;;12.65;100.00
61786;BME280;47692;53.714;11.372;2023-04-23T03:51:32;99943.13;;;12.69;100.00
61786;BME280;47692;53.714;11.372;2023-04-23T03:53:57;99948.25;;;12.72;100.00
61786;BME280;47692;53.714;11.372;2023-04-23T03:56:23;99943.91;;;12.71;100.00
61786;BME280;47692;53.714;11.372;2023-04-23T03:58:48;99948.63;;;12.63;100.00
61786;BME280;47692;53.714;11.372;2023-04-23T04:01:13;99945.09;;;12.64;100.00
61786;BME280;47692;53.714;11.372;2023-04-23T04:03:39;99941.69;;;12.61;100.00
61786;BME280;47692;53.714;11.372;2023-04-23T04:06:04;99940.97;;;12.58;100.00
61786;BME280;47692;53.714;11.372;2023-04-23T04:08:29;99951.16;;;12.64;100.00
61786;BME280;47692;53.714;11.372;2023-04-23T04:10:55;99948.44;;;12.67;100.00
61786;BME280;47692;53.714;11.372;2023-04-23T04:13:20;99952.81;;;12.67;100.00
61786;BME280;47692;53.714;11.372;2023-04-23T04:15:46;99955.41;;;12.67;100.00
61786;BME280;47692;53.714;11.372;2023-04-23T04:18:11;99944.94;;;12.67;100.00
61786;BME280;47692;53.714;11.372;2023-04-23T04:20:36;99943.97;;;12.69;100.00
61786;BME280;47692;53.714;11.372;2023-04-23T04:23:01;99953.75;;;12.66;100.00
61786;BME280;47692;53.714;11.372;2023-04-23T04:25:27;99954.66;;;12.65;100.00
61786;BME280;47692;53.714;11.372;2023-04-23T04:27:54;99950.59;;;12.57;100.00
61786;BME280;47692;53.714;11.372;2023-04-23T04:30:19;99951.97;;;12.66;100.00
61786;BME280;47692;53.714;11.372;2023-04-23T04:32:45;99960.81;;;12.64;100.00
61786;BME280;47692;53.714;11.372;2023-04-23T04:35:11;99948.50;;;12.66;100.00
61786;BME280;47692;53.714;11.372;2023-04-23T04:37:38;99960.00;;;12.61;100.00
61786;BME280;47692;53.714;11.372;2023-04-23T04:40:04;99959.25;;;12.59;100.00
61786;BME280;47692;53.714;11.372;2023-04-23T04:42:32;99961.06;;;12.57;100.00
61786;BME280;47692;53.714;11.372;2023-04-23T04:44:57;99954.91;;;12.58;100.00
61786;BME280;47692;53.714;11.372;2023-04-23T04:47:23;99957.66;;;12.55;100.00
61786;BME280;47692;53.714;11.372;2023-04-23T04:49:49;99964.47;;;12.59;100.00
61786;BME280;47692;53.714;11.372;2023-04-23T04:52:14;99962.16;;;12.52;100.00
61786;BME280;47692;53.714;11.372;2023-04-23T04:54:40;99968.28;;;12.52;100.00
61786;BME280;47692;53.714;11.372;2023-04-23T04:57:06;99968.53;;;12.46;100.00
61786;BME280;47692;53.714;11.372;2023-04-23T04:59:31;99966.69;;;12.48;100.00
61786;BME280;47692;53.714;11.372;2023-04-23T05:01:56;99975.41;;;12.49;100.00
61786;BME280;47692;53.714;11.372;2023-04-23T05:04:22;99975.47;;;12.47;100.00
61786;BME280;47692;53.714;11.372;2023-04-23T05:06:47;99986.22;;;12.41;100.00
61786;BME280;47692;53.714;11.372;2023-04-23T05:09:12;99985.66;;;12.33;100.00
61786;BME280;47692;53.714;11.372;2023-04-23T05:11:38;99991.59;;;12.16;100.00
61786;BME280;47692;53.714;11.372;2023-04-23T05:14:05;99989.69;;;11.99;100.00
61786;BME280;47692;53.714;11.372;2023-04-23T05:16:30;99990.81;;;11.91;100.00
61786;BME280;47692;53.714;11.372;2023-04-23T05:18:55;99991.94;;;11.84;100.00
61786;BME280;47692;53.714;11.372;2023-04-23T05:21:21;99999.97;;;11.79;100.00
61786;BME280;47692;53.714;11.372;2023-04-23T05:23:46;100000.03;;;11.78;100.00
61786;BME280;47692;53.714;11.372;2023-04-23T05:26:11;100003.03;;;11.69;100.00
61786;BME280;47692;53.714;11.372;2023-04-23T05:28:37;100006.56;;;11.68;100.00
61786;BME280;47692;53.714;11.372;2023-04-23T05:31:02;100013.72;;;11.62;100.00
61786;BME280;47692;53.714;11.372;2023-04-23T05:33:27;100011.34;;;11.56;100.00
61786;BME280;47692;53.714;11.372;2023-04-23T05:35:53;100015.03;;;11.51;100.00
61786;BME280;47692;53.714;11.372;2023-04-23T05:38:19;100012.94;;;11.37;100.00
61786;BME280;47692;53.714;11.372;2023-04-23T05:40:44;100016.47;;;11.36;100.00
61786;BME280;47692;53.714;11.372;2023-04-23T05:43:11;100021.06;;;11.29;100.00
61786;BME280;47692;53.714;11.372;2023-04-23T05:45:36;100026.31;;;11.27;100.00
61786;BME280;47692;53.714;11.372;2023-04-23T05:48:02;100032.66;;;11.22;100.00
61786;BME280;47692;53.714;11.372;2023-04-23T05:50:27;100029.16;;;11.21;100.00
61786;BME280;47692;53.714;11.372;2023-04-23T05:52:53;100031.31;;;11.10;100.00
61786;BME280;47692;53.714;11.372;2023-04-23T05:55:19;100038.25;;;11.11;100.00
61786;BME280;47692;53.714;11.372;2023-04-23T05:57:45;100043.00;;;10.99;100.00
61786;BME280;47692;53.714;11.372;2023-04-23T06:00:11;100042.31;;;10.94;100.00
61786;BME280;47692;53.714;11.372;2023-04-23T06:02:37;100044.13;;;10.92;100.00
61786;BME280;47692;53.714;11.372;2023-04-23T06:05:03;100046.69;;;10.69;100.00
61786;BME280;47692;53.714;11.372;2023-04-23T06:07:30;100048.59;;;10.63;100.00
61786;BME280;47692;53.714;11.372;2023-04-23T06:09:55;100047.00;;;10.59;100.00
61786;BME280;47692;53.714;11.372;2023-04-23T06:12:20;100052.44;;;10.53;100.00
61786;BME280;47692;53.714;11.372;2023-04-23T06:14:46;100050.81;;;10.49;100.00
61786;BME280;47692;53.714;11.372;2023-04-23T06:17:11;100049.09;;;10.48;100.00
61786;BME280;47692;53.714;11.372;2023-04-23T06:19:37;100042.94;;;10.50;100.00
61786;BME280;47692;53.714;11.372;2023-04-23T06:22:02;100047.28;;;10.50;100.00
61786;BME280;47692;53.714;11.372;2023-04-23T06:24:27;100055.25;;;10.47;100.00
61786;BME280;47692;53.714;11.372;2023-04-23T06:26:53;100057.72;;;10.50;100.00
61786;BME280;47692;53.714;11.372;2023-04-23T06:29:18;100056.91;;;10.49;100.00
61786;BME280;47692;53.714;11.372;2023-04-23T06:31:44;100063.81;;;10.50;100.00
61786;BME280;47692;53.714;11.372;2023-04-23T06:34:09;100064.53;;;10.54;100.00
61786;BME280;47692;53.714;11.372;2023-04-23T06:36:34;100075.38;;;10.42;100.00
61786;BME280;47692;53.714;11.372;2023-04-23T06:39:00;100072.06;;;10.38;100.00
61786;BME280;47692;53.714;11.372;2023-04-23T06:41:25;100086.00;;;10.35;100.00
61786;BME280;47692;53.714;11.372;2023-04-23T06:43:50;100087.66;;;10.40;100.00
61786;BME280;47692;53.714;11.372;2023-04-23T06:46:16;100086.22;;;10.29;100.00
61786;BME280;47692;53.714;11.372;2023-04-23T06:48:41;100095.16;;;10.21;100.00
61786;BME280;47692;53.714;11.372;2023-04-23T06:51:06;100093.38;;;10.23;100.00
61786;BME280;47692;53.714;11.372;2023-04-23T06:53:32;100101.13;;;10.24;100.00
61786;BME280;47692;53.714;11.372;2023-04-23T06:55:57;100096.94;;;10.20;100.00
61786;BME280;47692;53.714;11.372;2023-04-23T06:58:22;100107.47;;;10.17;100.00
61786;BME280;47692;53.714;11.372;2023-04-23T07:00:55;100105.00;;;10.12;100.00
61786;BME280;47692;53.714;11.372;2023-04-23T07:03:20;100095.41;;;10.13;100.00
61786;BME280;47692;53.714;11.372;2023-04-23T07:05:46;100105.06;;;10.11;100.00
61786;BME280;47692;53.714;11.372;2023-04-23T07:08:11;100111.16;;;10.10;100.00
61786;BME280;47692;53.714;11.372;2023-04-23T07:10:37;100108.63;;;10.07;100.00
61786;BME280;47692;53.714;11.372;2023-04-23T07:13:02;100108.50;;;10.11;100.00
61786;BME280;47692;53.714;11.372;2023-04-23T07:15:27;100107.56;;;10.14;100.00
61786;BME280;47692;53.714;11.372;2023-04-23T07:17:53;100105.66;;;10.19;100.00
61786;BME280;47692;53.714;11.372;2023-04-23T07:20:18;100109.25;;;10.15;100.00
61786;BME280;47692;53.714;11.372;2023-04-23T07:22:45;100107.59;;;10.12;100.00
61786;BME280;47692;53.714;11.372;2023-04-23T07:25:10;100109.53;;;10.06;100.00
61786;BME280;47692;53.714;11.372;2023-04-23T07:27:36;100106.78;;;10.10;100.00
61786;BME280;47692;53.714;11.372;2023-04-23T07:30:01;100102.63;;;10.05;100.00
61786;BME280;47692;53.714;11.372;2023-04-23T07:32:27;100109.53;;;10.06;100.00
61786;BME280;47692;53.714;11.372;2023-04-23T07:34:53;100116.38;;;10.10;100.00
61786;BME280;47692;53.714;11.372;2023-04-23T07:37:18;100125.28;;;10.02;100.00
61786;BME280;47692;53.714;11.372;2023-04-23T07:39:45;100122.91;;;9.95;100.00
61786;BME280;47692;53.714;11.372;2023-04-23T07:42:11;100119.22;;;10.02;100.00
61786;BME280;47692;53.714;11.372;2023-04-23T07:44:37;100128.59;;;10.08;100.00
61786;BME280;47692;53.714;11.372;2023-04-23T07:47:02;100128.59;;;10.08;100.00
61786;BME280;47692;53.714;11.372;2023-04-23T07:49:27;100135.59;;;10.06;100.00
61786;BME280;47692;53.714;11.372;2023-04-23T07:51:52;100139.75;;;10.13;100.00
61786;BME280;47692;53.714;11.372;2023-04-23T07:54:18;100150.34;;;10.07;100.00
61786;BME280;47692;53.714;11.372;2023-04-23T07:56:44;100149.28;;;10.14;100.00
61786;BME280;47692;53.714;11.372;2023-04-23T07:59:09;100154.59;;;10.11;100.00
61786;BME280;47692;53.714;11.372;2023-04-23T08:01:34;100149.47;;;10.08;100.00
61786;BME280;47692;53.714;11.372;2023-04-23T08:04:00;100154.97;;;9.98;100.00
61786;BME280;47692;53.714;11.372;2023-04-23T08:06:26;100152.53;;;9.92;100.00
61786;BME280;47692;53.714;11.372;2023-04-23T08:08:53;100146.31;;;9.96;100.00
61786;BME280;47692;53.714;11.372;2023-04-23T08:11:20;100146.38;;;9.95;100.00
61786;BME280;47692;53.714;11.372;2023-04-23T08:13:45;100146.31;;;9.96;100.00
61786;BME280;47692;53.714;11.372;2023-04-23T08:16:11;100144.53;;;9.98;100.00
61786;BME280;47692;53.714;11.372;2023-04-23T08:18:36;100149.59;;;10.03;100.00
61786;BME280;47692;53.714;11.372;2023-04-23T08:21:01;100146.41;;;9.93;100.00
61786;BME280;47692;53.714;11.372;2023-04-23T08:23:26;100143.19;;;9.85;100.00
61786;BME280;47692;53.714;11.372;2023-04-23T08:25:52;100139.41;;;9.95;100.00
61786;BME280;47692;53.714;11.372;2023-04-23T08:28:17;100146.16;;;10.02;100.00
61786;BME280;47692;53.714;11.372;2023-04-23T08:30:43;100150.53;;;10.02;100.00
61786;BME280;47692;53.714;11.372;2023-04-23T08:33:09;100143.41;;;10.07;100.00
61786;BME280;47692;53.714;11.372;2023-04-23T08:35:34;100139.03;;;10.08;100.00
61786;BME280;47692;53.714;11.372;2023-04-23T08:38:00;100137.25;;;10.10;100.00
61786;BME280;47692;53.714;11.372;2023-04-23T08:40:29;100133.75;;;10.11;100.00
61786;BME280;47692;53.714;11.372;2023-04-23T08:43:05;100139.44;;;10.24;100.00
61786;BME280;47692;53.714;11.372;2023-04-23T08:45:35;100136.88;;;10.22;100.00
61786;BME280;47692;53.714;11.372;2023-04-23T08:48:06;100134.44;;;10.16;100.00
61786;BME280;47692;53.714;11.372;2023-04-23T08:50:32;100140.56;;;10.15;100.00
61786;BME280;47692;53.714;11.372;2023-04-23T08:52:57;100134.41;;;10.17;100.00
61786;BME280;47692;53.714;11.372;2023-04-23T08:55:23;100143.75;;;10.25;100.00
61786;BME280;47692;53.714;11.372;2023-04-23T08:57:49;100141.00;;;10.29;100.00
61786;BME280;47692;53.714;11.372;2023-04-23T09:00:17;100153.38;;;10.23;100.00
61786;BME280;47692;53.714;11.372;2023-04-23T09:02:44;100152.41;;;10.25;100.00
61786;BME280;47692;53.714;11.372;2023-04-23T09:05:11;100153.06;;;10.33;100.00
61786;BME280;47692;53.714;11.372;2023-04-23T09:07:37;100153.84;;;10.37;100.00
61786;BME280;47692;53.714;11.372;2023-04-23T09:10:04;100151.88;;;10.44;100.00
61786;BME280;47692;53.714;11.372;2023-04-23T09:12:31;100158.72;;;10.48;100.00
61786;BME280;47692;53.714;11.372;2023-04-23T09:14:57;100156.84;;;10.53;100.00
61786;BME280;47692;53.714;11.372;2023-04-23T09:17:22;100156.59;;;10.61;100.00
61786;BME280;47692;53.714;11.372;2023-04-23T09:19:53;100156.34;;;10.69;100.00
61786;BME280;47692;53.714;11.372;2023-04-23T09:22:42;100159.44;;;10.80;100.00
61786;BME280;47692;53.714;11.372;2023-04-23T09:25:10;100147.97;;;10.86;100.00
61786;BME280;47692;53.714;11.372;2023-04-23T09:27:37;100155.09;;;10.80;99.07
61786;BME280;47692;53.714;11.372;2023-04-23T09:30:04;100151.31;;;10.89;97.78
61786;BME280;47692;53.714;11.372;2023-04-23T09:32:34;100147.75;;;10.92;95.96
61786;BME280;47692;53.714;11.372;2023-04-23T09:35:11;100144.31;;;10.90;95.34
61786;BME280;47692;53.714;11.372;2023-04-23T09:37:40;100140.97;;;11.11;97.34
61786;BME280;47692;53.714;11.372;2023-04-23T09:40:06;100140.69;;;11.21;95.82
61786;BME280;47692;53.714;11.372;2023-04-23T09:42:35;100135.84;;;11.35;93.43
61786;BME280;47692;53.714;11.372;2023-04-23T09:45:04;100138.72;;;11.51;94.22
61786;BME280;47692;53.714;11.372;2023-04-23T09:47:34;100139.94;;;11.66;92.46
61786;BME280;47692;53.714;11.372;2023-04-23T09:50:02;100144.31;;;11.66;92.31
61786;BME280;47692;53.714;11.372;2023-04-23T09:52:30;100133.53;;;11.75;91.39
61786;BME280;47692;53.714;11.372;2023-04-23T09:54:56;100133.31;;;11.81;91.50
61786;BME280;47692;53.714;11.372;2023-04-23T09:57:24;100140.34;;;11.79;87.84
61786;BME280;47692;53.714;11.372;2023-04-23T09:59:49;100130.28;;;11.92;88.75
61786;BME280;47692;53.714;11.372;2023-04-23T10:02:15;100137.84;;;12.00;87.43
61786;BME280;47692;53.714;11.372;2023-04-23T10:04:41;100136.19;;;11.99;86.23
61786;BME280;47692;53.714;11.372;2023-04-23T10:07:07;100129.31;;;11.94;85.48
61786;BME280;47692;53.714;11.372;2023-04-23T10:09:39;100131.16;;;11.92;85.18
61786;BME280;47692;53.714;11.372;2023-04-23T10:12:06;100134.25;;;12.04;85.49
61786;BME280;47692;53.714;11.372;2023-04-23T10:14:32;100146.84;;;12.16;85.75
61786;BME280;47692;53.714;11.372;2023-04-23T10:16:59;100145.22;;;12.36;84.82
61786;BME280;47692;53.714;11.372;2023-04-23T10:19:26;100145.94;;;12.61;85.21
61786;BME280;47692;53.714;11.372;2023-04-23T10:22:00;100145.09;;;12.61;79.40
61786;BME280;47692;53.714;11.372;2023-04-23T10:24:33;100137.16;;;12.63;78.43
61786;BME280;47692;53.714;11.372;2023-04-23T10:27:01;100136.81;;;12.72;81.03
61786;BME280;47692;53.714;11.372;2023-04-23T10:29:30;100131.34;;;12.76;79.66
61786;BME280;47692;53.714;11.372;2023-04-23T10:31:57;100132.63;;;12.88;79.57
61786;BME280;47692;53.714;11.372;2023-04-23T10:34:25;100141.47;;;13.06;78.99
61786;BME280;47692;53.714;11.372;2023-04-23T10:36:51;100139.91;;;13.23;78.61
61786;BME280;47692;53.714;11.372;2023-04-23T10:39:22;100131.72;;;13.10;75.96
61786;BME280;47692;53.714;11.372;2023-04-23T10:41:48;100127.25;;;12.91;75.64
61786;BME280;47692;53.714;11.372;2023-04-23T10:44:14;100120.78;;;13.00;76.35
61786;BME280;47692;53.714;11.372;2023-04-23T10:46:53;100124.50;;;13.15;77.29
61786;BME280;47692;53.714;11.372;2023-04-23T10:49:22;100122.94;;;13.11;75.25
61786;BME280;47692;53.714;11.372;2023-04-23T10:51:48;100128.19;;;13.11;74.59
61786;BME280;47692;53.714;11.372;2023-04-23T10:54:14;100125.50;;;13.13;74.10
61786;BME280;47692;53.714;11.372;2023-04-23T10:56:41;100123.47;;;13.19;73.15
61786;BME280;47692;53.714;11.372;2023-04-23T10:59:10;100117.31;;;13.20;73.60
61786;BME280;47692;53.714;11.372;2023-04-23T11:01:45;100114.56;;;13.44;75.12
61786;BME280;47692;53.714;11.372;2023-04-23T11:04:28;100115.94;;;13.72;76.02
61786;BME280;47692;53.714;11.372;2023-04-23T11:06:55;100110.78;;;13.89;75.68
61786;BME280;47692;53.714;11.372;2023-04-23T11:09:41;100105.56;;;14.07;76.24
61786;BME280;47692;53.714;11.372;2023-04-23T11:12:11;100108.91;;;14.30;77.06
61786;BME280;47692;53.714;11.372;2023-04-23T11:17:14;100118.38;;;14.51;71.53
61786;BME280;47692;53.714;11.372;2023-04-23T11:19:41;100114.66;;;14.75;73.55
61786;BME280;47692;53.714;11.372;2023-04-23T11:22:33;100121.13;;;14.85;72.39
61786;BME280;47692;53.714;11.372;2023-04-23T11:25:00;100114.03;;;14.69;70.10
61786;BME280;47692;53.714;11.372;2023-04-23T11:27:25;100120.91;;;14.53;69.21
61786;BME280;47692;53.714;11.372;2023-04-23T11:29:53;100123.44;;;14.54;69.48
61786;BME280;47692;53.714;11.372;2023-04-23T11:32:20;100121.13;;;14.67;70.42
61786;BME280;47692;53.714;11.372;2023-04-23T11:34:46;100123.53;;;14.90;69.88
61786;BME280;47692;53.714;11.372;2023-04-23T11:37:14;100124.44;;;15.06;69.50
61786;BME280;47692;53.714;11.372;2023-04-23T11:39:40;100116.97;;;14.98;67.16
61786;BME280;47692;53.714;11.372;2023-04-23T11:42:11;100116.47;;;15.08;67.43
61786;BME280;47692;53.714;11.372;2023-04-23T11:44:38;100116.78;;;15.01;67.43
61786;BME280;47692;53.714;11.372;2023-04-23T11:47:06;100112.63;;;15.15;66.86
61786;BME280;47692;53.714;11.372;2023-04-23T11:49:32;100112.81;;;15.28;68.23
61786;BME280;47692;53.714;11.372;2023-04-23T11:51:59;100113.13;;;15.39;68.00
61786;BME280;47692;53.714;11.372;2023-04-23T11:54:26;100109.84;;;15.51;68.21
61786;BME280;47692;53.714;11.372;2023-04-23T11:56:52;100108.84;;;15.70;66.79
61786;BME280;47692;53.714;11.372;2023-04-23T11:59:18;100115.66;;;15.74;66.72
61786;BME280;47692;53.714;11.372;2023-04-23T12:01:46;100110.53;;;15.71;64.61
61786;BME280;47692;53.714;11.372;2023-04-23T12:04:18;100113.56;;;15.47;65.25
61786;BME280;47692;53.714;11.372;2023-04-23T12:06:45;100114.59;;;15.61;65.72
61786;BME280;47692;53.714;11.372;2023-04-23T12:09:11;100110.81;;;15.66;64.61
61786;BME280;47692;53.714;11.372;2023-04-23T12:11:38;100111.41;;;15.72;64.70
61786;BME280;47692;53.714;11.372;2023-04-23T12:14:04;100112.31;;;15.88;64.61
61786;BME280;47692;53.714;11.372;2023-04-23T12:19:02;100135.06;;;16.37;63.30
61786;BME280;47692;53.714;11.372;2023-04-23T12:21:27;100123.31;;;16.59;63.29
61786;BME280;47692;53.714;11.372;2023-04-23T12:23:55;100118.50;;;16.51;61.37
61786;BME280;47692;53.714;11.372;2023-04-23T12:26:20;100115.41;;;16.59;61.20
61786;BME280;47692;53.714;11.372;2023-04-23T12:28:48;100109.63;;;16.83;61.03
61786;BME280;47692;53.714;11.372;2023-04-23T12:31:23;100108.03;;;17.10;60.86
61786;BME280;47692;53.714;11.372;2023-04-23T12:34:08;100110.53;;;17.57;59.86
61786;BME280;47692;53.714;11.372;2023-04-23T12:36:37;100109.47;;;17.74;59.05
61786;BME280;47692;53.714;11.372;2023-04-23T12:41:53;100089.41;;;17.57;57.22
61786;BME280;47692;53.714;11.372;2023-04-23T12:44:19;100093.72;;;17.72;58.49